Weather at Waukegan National Airport

Public forecast

Using degrees Fahrenheit for public forecast. Weather courtesy of forecast.io.

Current aviation weather report (METAR) for Waukegan National Airport

Retrieved 2020/12/04 10:55 UTC (6 minutes ago):

KUGN 041055Z AUTO 24011G18KT 10SM CLR 02/M04 A2986 RMK AO2 SLP119 T00171039

Closest aviation forecast (TAF) to Waukegan National Airport

Closest forecast is Kenosha Regional Airport, 10.7 nm (19.9 km) NNW. Retrieved 2020/12/04 06:22 UTC (5 hours ago):

TAF KENW 040520Z 0406/0506 26011G19KT P6SM BKN090 FM041100 29008KT P6SM FEW090 FM041700 32008KT P6SM SCT040